createdAt,value
2023-05-05T00:01:30.254Z,8.60
2023-05-05T00:03:56.773Z,8.59
2023-05-05T00:06:23.275Z,8.53
2023-05-05T00:08:49.739Z,8.49
2023-05-05T00:11:16.180Z,8.38
2023-05-05T00:13:42.683Z,8.28
2023-05-05T00:16:10.326Z,8.30
2023-05-05T00:18:37.429Z,8.29
2023-05-05T00:21:04.433Z,8.22
2023-05-05T00:23:30.893Z,8.25
2023-05-05T00:25:57.282Z,8.21
2023-05-05T00:28:23.741Z,8.11
2023-05-05T00:30:50.508Z,8.06
2023-05-05T00:33:17.145Z,8.00
2023-05-05T00:35:43.561Z,7.98
2023-05-05T00:38:10.244Z,7.90
2023-05-05T00:40:38.179Z,7.92
2023-05-05T00:43:05.197Z,7.89
2023-05-05T00:45:31.851Z,7.95
2023-05-05T00:47:59.721Z,7.99
2023-05-05T00:50:29.478Z,7.88
2023-05-05T00:53:02.159Z,7.89
2023-05-05T00:55:29.787Z,7.99
2023-05-05T00:57:57.961Z,7.95
2023-05-05T01:00:24.746Z,7.87
2023-05-05T01:02:52.633Z,7.86
2023-05-05T01:05:20.151Z,7.85
2023-05-05T01:07:54.109Z,7.86
2023-05-05T01:10:48.764Z,7.80
2023-05-05T01:13:31.798Z,7.77
2023-05-05T01:16:07.546Z,7.66
2023-05-05T01:18:45.840Z,7.65
2023-05-05T01:21:23.437Z,7.57
2023-05-05T01:24:06.556Z,7.49
2023-05-05T01:26:55.792Z,7.42
2023-05-05T01:30:05.557Z,7.37
2023-05-05T01:32:37.891Z,7.39
2023-05-05T01:35:13.382Z,7.36
2023-05-05T01:38:05.542Z,7.44
2023-05-05T01:40:36.765Z,7.37
2023-05-05T01:43:03.766Z,7.36
2023-05-05T01:45:33.706Z,7.32
2023-05-05T01:48:01.066Z,7.25
2023-05-05T01:50:28.831Z,7.28
2023-05-05T01:52:56.513Z,7.26
2023-05-05T01:55:25.523Z,7.22
2023-05-05T01:57:53.290Z,7.27
2023-05-05T02:00:20.072Z,7.22
2023-05-05T02:02:48.070Z,7.20
2023-05-05T02:05:16.517Z,7.26
2023-05-05T02:07:43.544Z,7.24
2023-05-05T02:10:10.693Z,7.18
2023-05-05T02:12:39.694Z,7.19
2023-05-05T02:15:06.879Z,7.10
2023-05-05T02:17:34.877Z,7.18
2023-05-05T02:20:02.062Z,7.15
2023-05-05T02:22:28.716Z,7.11
2023-05-05T02:24:55.411Z,7.08
2023-05-05T02:27:23.137Z,7.02
2023-05-05T02:29:56.602Z,7.02
2023-05-05T02:32:35.252Z,7.00
2023-05-05T02:35:09.496Z,7.04
2023-05-05T02:37:36.274Z,7.03
2023-05-05T02:40:05.271Z,7.00
2023-05-05T02:42:43.307Z,6.98
2023-05-05T02:45:15.806Z,7.03
2023-05-05T02:47:42.283Z,7.02
2023-05-05T02:50:09.526Z,7.00
2023-05-05T02:52:36.523Z,7.02
2023-05-05T02:55:04.306Z,7.03
2023-05-05T02:58:00.916Z,7.03
2023-05-05T03:00:34.345Z,7.03
2023-05-05T03:03:27.131Z,6.95
2023-05-05T03:06:11.848Z,6.92
2023-05-05T03:08:50.634Z,6.94
2023-05-05T03:11:38.821Z,7.00
2023-05-05T03:14:18.212Z,6.98
2023-05-05T03:16:45.838Z,7.02
2023-05-05T03:19:14.641Z,7.05
2023-05-05T03:21:41.708Z,7.06
2023-05-05T03:24:15.703Z,7.05
2023-05-05T03:26:43.175Z,7.08
2023-05-05T03:29:09.869Z,7.13
2023-05-05T03:31:36.541Z,7.05
2023-05-05T03:34:03.109Z,7.05
2023-05-05T03:36:29.949Z,7.05
2023-05-05T03:38:58.120Z,7.00
2023-05-05T03:41:24.928Z,6.99
2023-05-05T03:43:51.679Z,6.94
2023-05-05T03:46:18.322Z,6.94
2023-05-05T03:48:46.157Z,6.91
2023-05-05T03:51:13.269Z,6.90
2023-05-05T03:53:39.779Z,6.84
2023-05-05T03:56:06.409Z,6.83
2023-05-05T03:58:33.066Z,6.85
2023-05-05T04:00:59.514Z,6.89
2023-05-05T04:03:26.164Z,6.88
2023-05-05T04:05:52.949Z,6.87
2023-05-05T04:08:19.428Z,6.87
2023-05-05T04:10:46.900Z,6.91
2023-05-05T04:13:13.375Z,6.94
2023-05-05T04:15:44.823Z,6.99
2023-05-05T04:18:11.379Z,7.03
2023-05-05T04:20:37.912Z,7.08
2023-05-05T04:23:04.460Z,7.15
2023-05-05T04:25:31.071Z,7.26
2023-05-05T04:27:57.651Z,7.34
2023-05-05T04:30:24.100Z,7.49
2023-05-05T04:32:50.544Z,7.53
2023-05-05T04:35:17.294Z,7.60
2023-05-05T04:37:45.161Z,7.68
2023-05-05T04:40:13.744Z,7.78
2023-05-05T04:42:42.219Z,7.84
2023-05-05T04:45:09.090Z,7.96
2023-05-05T04:47:40.951Z,8.04
2023-05-05T04:50:08.370Z,8.17
2023-05-05T04:52:35.032Z,8.34
2023-05-05T04:55:01.491Z,8.50
2023-05-05T04:57:29.605Z,8.61
2023-05-05T04:59:56.243Z,8.70
2023-05-05T05:02:23.717Z,8.79
2023-05-05T05:04:50.312Z,8.97
2023-05-05T05:07:16.817Z,9.24
2023-05-05T05:09:44.343Z,9.00
2023-05-05T05:12:10.828Z,8.87
2023-05-05T05:14:38.153Z,8.90
2023-05-05T05:17:05.674Z,9.19
2023-05-05T05:19:32.284Z,9.26
2023-05-05T05:21:58.746Z,9.25
2023-05-05T05:24:25.316Z,9.32
2023-05-05T05:26:51.830Z,9.33
2023-05-05T05:29:20.030Z,9.42
2023-05-05T05:31:46.554Z,9.72
2023-05-05T05:34:13.080Z,10.21
2023-05-05T05:36:39.597Z,11.37
2023-05-05T05:39:06.354Z,12.03
2023-05-05T05:41:32.779Z,12.99
2023-05-05T05:44:00.407Z,13.82
2023-05-05T05:46:26.833Z,12.99
2023-05-05T05:48:53.312Z,13.16
2023-05-05T05:51:19.745Z,13.71
2023-05-05T05:53:46.184Z,14.62
2023-05-05T05:56:12.644Z,14.37
2023-05-05T05:58:39.212Z,14.21
2023-05-05T06:01:05.770Z,14.15
2023-05-05T06:03:32.684Z,14.51
2023-05-05T06:05:59.212Z,15.33
2023-05-05T06:08:26.800Z,15.63
2023-05-05T06:10:53.223Z,17.22
2023-05-05T06:13:19.641Z,18.41
2023-05-05T06:15:46.239Z,18.29
2023-05-05T06:18:13.815Z,18.16
2023-05-05T06:20:40.321Z,18.01
2023-05-05T06:23:06.961Z,18.90
2023-05-05T06:25:33.394Z,20.01
2023-05-05T06:28:00.114Z,20.72
2023-05-05T06:30:26.851Z,19.83
2023-05-05T06:32:54.251Z,19.66
2023-05-05T06:35:22.354Z,20.52
2023-05-05T06:37:48.842Z,19.80
2023-05-05T06:40:15.357Z,20.58
2023-05-05T06:42:41.844Z,21.75
2023-05-05T06:45:09.162Z,22.10
2023-05-05T06:47:36.300Z,21.52
2023-05-05T06:50:02.776Z,21.65
2023-05-05T06:52:29.243Z,23.29
2023-05-05T06:54:55.749Z,23.54
2023-05-05T06:57:22.082Z,23.22
2023-05-05T06:59:48.628Z,25.15
2023-05-05T07:02:15.147Z,23.37
2023-05-05T07:04:42.496Z,24.54
2023-05-05T07:07:09.085Z,24.26
2023-05-05T07:09:35.558Z,24.47
2023-05-05T07:12:02.022Z,23.86
2023-05-05T07:14:28.430Z,23.51
2023-05-05T07:16:55.014Z,22.60
2023-05-05T07:19:22.203Z,22.94
2023-05-05T07:21:48.614Z,23.26
2023-05-05T07:24:16.167Z,23.82
2023-05-05T07:26:42.656Z,24.85
2023-05-05T07:29:09.167Z,25.07
2023-05-05T07:31:35.807Z,24.45
2023-05-05T07:34:02.219Z,24.23
2023-05-05T07:36:28.683Z,25.10
2023-05-05T07:38:55.355Z,26.38
2023-05-05T07:41:22.110Z,26.70
2023-05-05T07:43:48.556Z,26.14
2023-05-05T07:46:15.234Z,25.72
2023-05-05T07:48:41.982Z,25.49
2023-05-05T07:51:09.230Z,26.52
2023-05-05T07:53:35.750Z,26.83
2023-05-05T07:56:02.247Z,26.87
2023-05-05T07:58:28.971Z,26.50
2023-05-05T08:00:56.289Z,28.49
2023-05-05T08:03:24.904Z,29.97
2023-05-05T08:05:54.398Z,29.83
2023-05-05T08:08:24.498Z,28.99
2023-05-05T08:10:51.934Z,30.87
2023-05-05T08:13:18.589Z,29.68
2023-05-05T08:15:45.502Z,28.59
2023-05-05T08:18:12.061Z,28.81
2023-05-05T08:20:38.643Z,27.50
2023-05-05T08:23:05.241Z,27.65
2023-05-05T08:25:31.772Z,28.04
2023-05-05T08:27:58.197Z,28.56
2023-05-05T08:30:24.611Z,28.86
2023-05-05T08:32:52.156Z,30.12
2023-05-05T08:35:24.520Z,30.26
2023-05-05T08:37:52.055Z,29.51
2023-05-05T08:40:20.897Z,27.85
2023-05-05T08:42:47.858Z,28.73
2023-05-05T08:45:14.651Z,27.05
2023-05-05T08:47:43.126Z,27.31
2023-05-05T08:50:10.410Z,27.95
2023-05-05T08:52:41.984Z,29.20
2023-05-05T08:55:25.516Z,27.37
2023-05-05T08:57:57.037Z,26.62
2023-05-05T09:00:24.339Z,27.20
2023-05-05T09:02:59.319Z,27.08
2023-05-05T09:05:29.602Z,26.84
2023-05-05T09:08:01.773Z,26.91
2023-05-05T09:10:31.585Z,26.98
2023-05-05T09:12:58.140Z,28.14
2023-05-05T09:15:28.406Z,29.38
2023-05-05T09:17:57.045Z,27.22
2023-05-05T09:20:24.841Z,27.91
2023-05-05T09:22:53.123Z,27.99
2023-05-05T09:25:19.594Z,26.84
2023-05-05T09:27:48.161Z,25.47
2023-05-05T09:30:17.285Z,25.75
2023-05-05T09:32:47.798Z,27.07
2023-05-05T09:35:15.246Z,28.50
2023-05-05T09:37:42.130Z,29.30
2023-05-05T09:40:09.592Z,29.85
2023-05-05T09:42:37.829Z,29.54
2023-05-05T09:45:25.614Z,29.74
2023-05-05T09:47:54.805Z,28.09
2023-05-05T09:50:25.897Z,28.57
2023-05-05T09:52:56.055Z,29.44
2023-05-05T09:55:23.746Z,28.08
2023-05-05T09:57:50.504Z,28.73
2023-05-05T10:00:17.737Z,29.40
2023-05-05T10:02:44.595Z,28.96
2023-05-05T10:05:18.623Z,29.60
2023-05-05T10:07:47.372Z,29.93
2023-05-05T10:10:16.093Z,30.00
2023-05-05T10:12:43.065Z,30.05
2023-05-05T10:15:11.247Z,28.32
2023-05-05T10:18:05.316Z,28.73
2023-05-05T10:20:36.415Z,28.42
2023-05-05T10:23:06.123Z,27.26
2023-05-05T10:25:39.606Z,27.22
2023-05-05T10:28:06.943Z,27.86
2023-05-05T10:30:37.209Z,27.38
2023-05-05T10:33:30.298Z,27.68
2023-05-05T10:36:01.462Z,28.31
2023-05-05T10:38:30.898Z,28.29
2023-05-05T10:40:58.413Z,27.19
2023-05-05T10:43:25.088Z,27.23
2023-05-05T10:45:51.900Z,27.24
2023-05-05T10:48:27.519Z,28.51
2023-05-05T10:51:02.152Z,28.42
2023-05-05T10:53:32.768Z,29.07
2023-05-05T10:56:26.633Z,26.85
2023-05-05T10:59:00.042Z,26.86
2023-05-05T11:01:32.642Z,27.30
2023-05-05T11:04:18.259Z,27.76
2023-05-05T11:07:14.300Z,28.87
2023-05-05T11:09:58.936Z,28.04
2023-05-05T11:12:25.739Z,28.24
2023-05-05T11:15:26.515Z,27.95
2023-05-05T11:18:05.846Z,27.85
2023-05-05T11:20:40.119Z,28.76
2023-05-05T11:23:06.748Z,27.31
2023-05-05T11:25:36.755Z,26.99
2023-05-05T11:28:31.399Z,26.38
2023-05-05T11:31:01.060Z,26.33
2023-05-05T11:33:38.423Z,27.43
2023-05-05T11:36:15.324Z,26.43
2023-05-05T11:38:48.709Z,25.71
2023-05-05T11:41:30.601Z,26.23
2023-05-05T11:44:12.811Z,26.15
2023-05-05T11:46:41.192Z,25.52
2023-05-05T11:49:09.218Z,26.36
2023-05-05T11:51:35.902Z,27.27
2023-05-05T11:54:02.507Z,26.73
2023-05-05T11:56:28.980Z,26.67
2023-05-05T11:59:08.012Z,26.80
2023-05-05T12:01:35.059Z,26.49
2023-05-05T12:04:01.906Z,26.20
2023-05-05T12:06:33.191Z,26.84
2023-05-05T12:09:00.683Z,26.96
2023-05-05T12:11:27.509Z,26.74
2023-05-05T12:14:12.179Z,26.82
2023-05-05T12:16:38.931Z,26.28
2023-05-05T12:19:10.446Z,26.50
2023-05-05T12:21:38.261Z,26.62
2023-05-05T12:24:05.169Z,26.97
2023-05-05T12:26:32.347Z,26.44
2023-05-05T12:29:00.125Z,26.49
2023-05-05T12:31:41.349Z,25.10
2023-05-05T12:34:09.958Z,24.88
2023-05-05T12:36:36.975Z,24.55
2023-05-05T12:39:07.290Z,24.47
2023-05-05T12:41:34.730Z,24.79
2023-05-05T12:44:03.073Z,24.84
2023-05-05T12:46:30.968Z,24.82
2023-05-05T12:49:05.653Z,24.72
2023-05-05T12:51:36.006Z,24.89
2023-05-05T12:54:09.818Z,25.50
2023-05-05T12:56:43.925Z,25.59
2023-05-05T12:59:12.237Z,25.48
2023-05-05T13:01:52.759Z,25.42
2023-05-05T13:04:20.950Z,25.36
2023-05-05T13:06:49.110Z,25.40
2023-05-05T13:09:23.689Z,25.52
2023-05-05T13:11:50.230Z,25.55
2023-05-05T13:14:17.701Z,25.76
2023-05-05T13:16:47.247Z,26.38
2023-05-05T13:19:15.881Z,26.95
2023-05-05T13:21:42.818Z,26.94
2023-05-05T13:24:21.396Z,26.21
2023-05-05T13:26:53.317Z,25.75
2023-05-05T13:29:19.924Z,25.33
2023-05-05T13:31:46.454Z,25.23
2023-05-05T13:34:12.921Z,24.86
2023-05-05T13:36:39.473Z,24.33
2023-05-05T13:39:06.098Z,24.42
2023-05-05T13:41:32.524Z,24.17
2023-05-05T13:44:00.000Z,24.02
2023-05-05T13:46:26.901Z,24.04
2023-05-05T13:48:56.689Z,23.93
2023-05-05T13:51:23.354Z,23.86
2023-05-05T13:53:49.819Z,23.97
2023-05-05T13:56:18.071Z,23.83
2023-05-05T13:58:44.761Z,23.59
2023-05-05T14:01:11.365Z,23.80
2023-05-05T14:03:39.491Z,24.10
2023-05-05T14:06:07.458Z,24.54
2023-05-05T14:08:34.210Z,25.02
2023-05-05T14:11:01.824Z,25.02
2023-05-05T14:13:28.418Z,24.94
2023-05-05T14:15:55.100Z,25.03
2023-05-05T14:18:22.728Z,25.22
2023-05-05T14:20:49.076Z,25.21
2023-05-05T14:23:15.865Z,25.34
2023-05-05T14:25:42.704Z,24.89
2023-05-05T14:28:09.254Z,24.83
2023-05-05T14:30:36.759Z,24.56
2023-05-05T14:33:03.645Z,24.16
2023-05-05T14:35:31.449Z,24.22
2023-05-05T14:37:57.883Z,24.64
2023-05-05T14:40:24.393Z,24.35
2023-05-05T14:42:51.036Z,24.54
2023-05-05T14:45:17.536Z,24.35
2023-05-05T14:47:43.981Z,24.12
2023-05-05T14:50:11.683Z,24.07
2023-05-05T14:52:40.334Z,23.70
2023-05-05T14:55:07.752Z,23.84
2023-05-05T14:57:38.007Z,23.72
2023-05-05T15:00:07.979Z,23.75
2023-05-05T15:02:34.945Z,23.43
2023-05-05T15:05:03.697Z,23.48
2023-05-05T15:07:30.386Z,23.62
2023-05-05T15:09:57.014Z,23.73
2023-05-05T15:12:23.947Z,23.71
2023-05-05T15:14:50.500Z,23.76
2023-05-05T15:17:18.320Z,23.91
2023-05-05T15:19:44.798Z,23.71
2023-05-05T15:22:11.302Z,23.61
2023-05-05T15:24:38.142Z,23.75
2023-05-05T15:27:04.636Z,23.68
2023-05-05T15:29:31.323Z,23.95
2023-05-05T15:31:57.859Z,23.42
2023-05-05T15:34:26.200Z,23.19
2023-05-05T15:36:53.995Z,23.40
2023-05-05T15:39:20.485Z,23.45
2023-05-05T15:41:48.529Z,23.41
2023-05-05T15:44:14.964Z,23.62
2023-05-05T15:46:41.587Z,23.43
2023-05-05T15:49:08.231Z,23.33
2023-05-05T15:51:34.677Z,23.47
2023-05-05T15:54:01.554Z,23.48
2023-05-05T15:56:29.137Z,23.37
2023-05-05T15:58:56.631Z,23.47
2023-05-05T16:01:23.287Z,23.47
2023-05-05T16:03:49.790Z,23.45
2023-05-05T16:06:16.271Z,23.46
2023-05-05T16:08:42.754Z,23.51
2023-05-05T16:11:09.307Z,23.45
2023-05-05T16:13:35.892Z,23.44
2023-05-05T16:16:02.355Z,23.49
2023-05-05T16:18:28.947Z,23.43
2023-05-05T16:20:55.634Z,23.06
2023-05-05T16:23:22.096Z,22.94
2023-05-05T16:25:48.634Z,22.83
2023-05-05T16:28:15.040Z,22.86
2023-05-05T16:30:43.062Z,22.85
2023-05-05T16:33:10.787Z,22.95
2023-05-05T16:35:37.320Z,22.90
2023-05-05T16:38:03.766Z,22.81
2023-05-05T16:40:30.474Z,22.68
2023-05-05T16:42:56.909Z,22.56
2023-05-05T16:45:24.319Z,22.53
2023-05-05T16:47:51.131Z,22.51
2023-05-05T16:50:17.774Z,22.50
2023-05-05T16:52:45.295Z,22.47
2023-05-05T16:55:12.037Z,22.46
2023-05-05T16:57:38.582Z,22.22
2023-05-05T17:00:08.541Z,22.25
2023-05-05T17:02:35.782Z,22.18
2023-05-05T17:05:02.653Z,22.13
2023-05-05T17:07:29.281Z,21.98
2023-05-05T17:09:55.765Z,22.04
2023-05-05T17:12:22.233Z,21.87
2023-05-05T17:14:48.717Z,21.93
2023-05-05T17:17:15.474Z,21.86
2023-05-05T17:19:42.942Z,21.83
2023-05-05T17:22:09.440Z,21.92
2023-05-05T17:24:36.335Z,21.71
2023-05-05T17:27:02.768Z,21.61
2023-05-05T17:29:29.272Z,21.57
2023-05-05T17:31:55.809Z,21.59
2023-05-05T17:34:22.281Z,21.55
2023-05-05T17:36:48.691Z,21.50
2023-05-05T17:39:16.328Z,21.52
2023-05-05T17:41:42.847Z,21.43
2023-05-05T17:44:11.370Z,21.33
2023-05-05T17:46:38.226Z,21.32
2023-05-05T17:49:04.966Z,21.19
2023-05-05T17:51:31.700Z,21.21
2023-05-05T17:53:58.136Z,21.13
2023-05-05T17:56:24.562Z,21.01
2023-05-05T17:58:51.305Z,20.93
2023-05-05T18:01:25.480Z,20.88
2023-05-05T18:03:52.417Z,20.74
2023-05-05T18:06:19.227Z,20.66
2023-05-05T18:08:45.748Z,20.62
2023-05-05T18:11:12.345Z,20.40
2023-05-05T18:13:39.481Z,20.28
2023-05-05T18:16:06.451Z,20.28
2023-05-05T18:18:33.029Z,20.06
2023-05-05T18:20:59.502Z,19.98
2023-05-05T18:23:26.072Z,19.89
2023-05-05T18:25:52.540Z,19.79
2023-05-05T18:28:19.211Z,19.70
2023-05-05T18:30:45.913Z,19.73
2023-05-05T18:33:12.548Z,19.71
2023-05-05T18:35:39.120Z,19.52
2023-05-05T18:38:05.836Z,19.47
2023-05-05T18:40:32.264Z,19.42
2023-05-05T18:42:58.866Z,19.40
2023-05-05T18:45:25.491Z,19.39
2023-05-05T18:47:52.120Z,19.40
2023-05-05T18:50:18.840Z,19.29
2023-05-05T18:52:45.824Z,19.15
2023-05-05T18:55:12.556Z,19.14
2023-05-05T18:57:39.188Z,19.11
2023-05-05T19:00:06.243Z,19.01
2023-05-05T19:02:32.739Z,18.98
2023-05-05T19:04:59.438Z,18.90
2023-05-05T19:07:35.097Z,18.86
2023-05-05T19:10:04.415Z,18.87
2023-05-05T19:12:31.129Z,18.84
2023-05-05T19:14:58.121Z,18.85
2023-05-05T19:17:25.648Z,18.81
2023-05-05T19:19:53.892Z,18.81
2023-05-05T19:22:23.956Z,18.76
2023-05-05T19:24:51.064Z,18.69
2023-05-05T19:27:20.294Z,18.87
2023-05-05T19:29:52.108Z,18.83
2023-05-05T19:32:21.025Z,18.77
2023-05-05T19:34:48.096Z,18.71
2023-05-05T19:37:14.783Z,18.69
2023-05-05T19:39:44.395Z,18.68
2023-05-05T19:42:12.020Z,18.58
2023-05-05T19:44:38.829Z,18.55
2023-05-05T19:47:05.748Z,18.48
2023-05-05T19:49:34.680Z,18.46
2023-05-05T19:52:04.159Z,18.36
2023-05-05T19:54:30.813Z,18.32
2023-05-05T19:56:57.749Z,18.35
2023-05-05T19:59:24.517Z,18.24
2023-05-05T20:01:51.602Z,18.29
2023-05-05T20:04:18.513Z,18.20
2023-05-05T20:06:45.372Z,18.20
2023-05-05T20:09:13.814Z,18.27
2023-05-05T20:11:40.584Z,18.14
2023-05-05T20:14:08.453Z,18.11
2023-05-05T20:16:36.594Z,18.06
2023-05-05T20:19:05.269Z,18.07
2023-05-05T20:21:32.403Z,18.07
2023-05-05T20:23:59.665Z,17.97
2023-05-05T20:26:26.552Z,17.96
2023-05-05T20:28:53.021Z,17.98
2023-05-05T20:31:19.536Z,17.86
2023-05-05T20:33:46.220Z,17.85
2023-05-05T20:36:12.736Z,17.66
2023-05-05T20:38:39.228Z,17.61
2023-05-05T20:41:06.276Z,17.56
2023-05-05T20:43:32.689Z,17.53
2023-05-05T20:45:59.158Z,17.49
2023-05-05T20:48:25.738Z,17.48
2023-05-05T20:50:52.297Z,17.47
2023-05-05T20:53:19.193Z,17.45
2023-05-05T20:55:47.463Z,17.43
2023-05-05T20:58:13.994Z,17.35
2023-05-05T21:00:40.819Z,17.29
2023-05-05T21:03:07.525Z,17.30
2023-05-05T21:05:35.518Z,17.28
2023-05-05T21:08:02.018Z,17.28
2023-05-05T21:10:29.260Z,17.21
2023-05-05T21:12:55.749Z,17.10
2023-05-05T21:15:22.642Z,17.00
2023-05-05T21:17:49.196Z,17.08
2023-05-05T21:20:16.549Z,17.10
2023-05-05T21:22:43.011Z,16.97
2023-05-05T21:25:18.668Z,16.97
2023-05-05T21:27:47.003Z,16.99
2023-05-05T21:30:13.938Z,16.80
2023-05-05T21:32:41.101Z,16.78
2023-05-05T21:35:08.603Z,16.76
2023-05-05T21:37:37.248Z,16.68
2023-05-05T21:40:06.365Z,16.74
2023-05-05T21:42:33.105Z,16.77
2023-05-05T21:44:59.515Z,16.63
2023-05-05T21:47:26.796Z,16.71
2023-05-05T21:49:54.200Z,16.73
2023-05-05T21:52:20.860Z,16.66
2023-05-05T21:54:47.338Z,16.60
2023-05-05T21:57:13.841Z,16.61
2023-05-05T21:59:41.201Z,16.57
2023-05-05T22:02:17.671Z,16.58
2023-05-05T22:04:48.388Z,16.64
2023-05-05T22:07:15.123Z,16.83
2023-05-05T22:09:41.850Z,16.71
2023-05-05T22:12:08.340Z,16.76
2023-05-05T22:14:34.829Z,16.70
2023-05-05T22:17:01.327Z,16.66
2023-05-05T22:19:28.289Z,16.55
2023-05-05T22:21:54.926Z,16.34
2023-05-05T22:24:21.426Z,16.33
2023-05-05T22:26:47.960Z,16.26
2023-05-05T22:29:14.450Z,16.21
2023-05-05T22:31:41.092Z,16.19
2023-05-05T22:34:07.959Z,16.26
2023-05-05T22:36:34.449Z,16.20
2023-05-05T22:39:00.968Z,16.18
2023-05-05T22:41:27.377Z,16.11
2023-05-05T22:43:53.984Z,16.10
2023-05-05T22:46:21.473Z,16.09
2023-05-05T22:48:49.039Z,16.04
2023-05-05T22:51:15.641Z,15.76
2023-05-05T22:53:43.276Z,15.50
2023-05-05T22:56:09.866Z,15.30
2023-05-05T22:58:37.332Z,15.12
2023-05-05T23:01:03.919Z,14.91
2023-05-05T23:03:31.487Z,14.80
2023-05-05T23:05:58.106Z,14.61
2023-05-05T23:08:24.861Z,14.40
2023-05-05T23:10:51.368Z,14.18
2023-05-05T23:13:18.547Z,13.97
2023-05-05T23:15:45.694Z,13.66
2023-05-05T23:18:12.293Z,13.47
2023-05-05T23:20:39.191Z,13.36
2023-05-05T23:23:05.933Z,13.36
2023-05-05T23:25:32.553Z,13.43
2023-05-05T23:27:59.341Z,13.49
2023-05-05T23:30:26.123Z,13.44
2023-05-05T23:32:54.363Z,13.38
2023-05-05T23:35:22.242Z,13.42
2023-05-05T23:37:49.437Z,13.27
2023-05-05T23:40:16.565Z,13.32
2023-05-05T23:42:44.221Z,13.41
2023-05-05T23:45:11.751Z,13.42
2023-05-05T23:47:38.997Z,13.45
2023-05-05T23:50:06.655Z,13.44
2023-05-05T23:52:34.135Z,13.02
2023-05-05T23:55:00.679Z,12.80
2023-05-05T23:57:28.915Z,12.72
2023-05-05T23:59:55.764Z,12.70
